sensor_id;sensor_type;location;lat;lon;timestamp;temperature;humidity
2463;DHT22;1243;54.298;10.172;2023-07-29T00:01:59;16.90;99.90
2463;DHT22;1243;54.298;10.172;2023-07-29T00:04:25;16.90;99.90
2463;DHT22;1243;54.298;10.172;2023-07-29T00:06:51;16.90;99.90
2463;DHT22;1243;54.298;10.172;2023-07-29T00:09:16;16.90;99.90
2463;DHT22;1243;54.298;10.172;2023-07-29T00:11:42;16.80;99.90
2463;DHT22;1243;54.298;10.172;2023-07-29T00:14:08;16.80;99.90
2463;DHT22;1243;54.298;10.172;2023-07-29T00:16:33;16.80;99.90
2463;DHT22;1243;54.298;10.172;2023-07-29T00:18:59;16.80;99.90
2463;DHT22;1243;54.298;10.172;2023-07-29T00:21:25;16.80;99.90
2463;DHT22;1243;54.298;10.172;2023-07-29T00:23:50;16.80;99.90
2463;DHT22;1243;54.298;10.172;2023-07-29T00:26:16;16.80;99.90
2463;DHT22;1243;54.298;10.172;2023-07-29T00:28:42;16.80;99.90
2463;DHT22;1243;54.298;10.172;2023-07-29T00:31:08;16.70;99.90
2463;DHT22;1243;54.298;10.172;2023-07-29T00:33:34;16.70;99.90
2463;DHT22;1243;54.298;10.172;2023-07-29T00:35:59;16.70;99.90
2463;DHT22;1243;54.298;10.172;2023-07-29T00:38:28;16.70;99.90
2463;DHT22;1243;54.298;10.172;2023-07-29T00:40:54;16.80;99.90
2463;DHT22;1243;54.298;10.172;2023-07-29T00:43:21;16.80;99.90
2463;DHT22;1243;54.298;10.172;2023-07-29T00:45:46;16.80;99.90
2463;DHT22;1243;54.298;10.172;2023-07-29T00:48:13;16.80;99.90
2463;DHT22;1243;54.298;10.172;2023-07-29T00:50:39;16.80;99.90
2463;DHT22;1243;54.298;10.172;2023-07-29T00:53:05;16.90;99.90
2463;DHT22;1243;54.298;10.172;2023-07-29T00:55:31;17.00;99.90
2463;DHT22;1243;54.298;10.172;2023-07-29T00:57:57;17.00;99.90
2463;DHT22;1243;54.298;10.172;2023-07-29T01:00:23;17.10;99.90
2463;DHT22;1243;54.298;10.172;2023-07-29T01:02:50;17.10;99.90
2463;DHT22;1243;54.298;10.172;2023-07-29T01:05:16;17.10;99.90
2463;DHT22;1243;54.298;10.172;2023-07-29T01:07:51;17.10;99.90
2463;DHT22;1243;54.298;10.172;2023-07-29T01:13:13;17.20;99.90
2463;DHT22;1243;54.298;10.172;2023-07-29T01:15:56;17.20;99.90
2463;DHT22;1243;54.298;10.172;2023-07-29T01:18:29;17.20;99.90
2463;DHT22;1243;54.298;10.172;2023-07-29T01:20:59;17.20;99.90
2463;DHT22;1243;54.298;10.172;2023-07-29T01:23:32;17.20;99.90
2463;DHT22;1243;54.298;10.172;2023-07-29T01:25:57;17.20;99.90
2463;DHT22;1243;54.298;10.172;2023-07-29T01:28:24;17.20;99.90
2463;DHT22;1243;54.298;10.172;2023-07-29T01:30:52;17.20;99.90
2463;DHT22;1243;54.298;10.172;2023-07-29T01:33:33;17.10;99.90
2463;DHT22;1243;54.298;10.172;2023-07-29T01:36:10;17.10;99.90
2463;DHT22;1243;54.298;10.172;2023-07-29T01:38:38;17.10;99.90
2463;DHT22;1243;54.298;10.172;2023-07-29T01:41:07;17.10;99.90
2463;DHT22;1243;54.298;10.172;2023-07-29T01:43:33;17.00;99.90
2463;DHT22;1243;54.298;10.172;2023-07-29T01:46:00;17.00;99.90
2463;DHT22;1243;54.298;10.172;2023-07-29T01:48:26;17.00;99.90
2463;DHT22;1243;54.298;10.172;2023-07-29T01:50:54;17.00;99.90
2463;DHT22;1243;54.298;10.172;2023-07-29T01:53:19;17.00;99.90
2463;DHT22;1243;54.298;10.172;2023-07-29T01:55:45;17.00;99.90
2463;DHT22;1243;54.298;10.172;2023-07-29T01:58:11;17.00;99.90
2463;DHT22;1243;54.298;10.172;2023-07-29T02:00:37;17.00;99.90
2463;DHT22;1243;54.298;10.172;2023-07-29T02:03:03;17.10;99.90
2463;DHT22;1243;54.298;10.172;2023-07-29T02:05:28;17.00;99.90
2463;DHT22;1243;54.298;10.172;2023-07-29T02:07:54;17.00;99.90
2463;DHT22;1243;54.298;10.172;2023-07-29T02:10:20;17.00;99.90
2463;DHT22;1243;54.298;10.172;2023-07-29T02:12:46;17.00;99.90
2463;DHT22;1243;54.298;10.172;2023-07-29T02:15:11;17.10;99.90
2463;DHT22;1243;54.298;10.172;2023-07-29T02:17:37;17.10;99.90
2463;DHT22;1243;54.298;10.172;2023-07-29T02:20:04;17.10;99.90
2463;DHT22;1243;54.298;10.172;2023-07-29T02:22:30;17.10;99.90
2463;DHT22;1243;54.298;10.172;2023-07-29T02:24:55;17.00;99.90
2463;DHT22;1243;54.298;10.172;2023-07-29T02:27:21;17.00;99.90
2463;DHT22;1243;54.298;10.172;2023-07-29T02:29:47;17.00;99.90
2463;DHT22;1243;54.298;10.172;2023-07-29T02:32:13;17.00;99.90
2463;DHT22;1243;54.298;10.172;2023-07-29T02:34:38;17.00;99.90
2463;DHT22;1243;54.298;10.172;2023-07-29T02:37:04;17.00;99.90
2463;DHT22;1243;54.298;10.172;2023-07-29T02:39:30;17.00;99.90
2463;DHT22;1243;54.298;10.172;2023-07-29T02:41:56;17.10;99.90
2463;DHT22;1243;54.298;10.172;2023-07-29T02:44:24;17.00;99.90
2463;DHT22;1243;54.298;10.172;2023-07-29T02:46:49;17.10;99.90
2463;DHT22;1243;54.298;10.172;2023-07-29T02:49:17;17.10;99.90
2463;DHT22;1243;54.298;10.172;2023-07-29T02:51:43;17.10;99.90
2463;DHT22;1243;54.298;10.172;2023-07-29T02:54:09;16.90;99.90
2463;DHT22;1243;54.298;10.172;2023-07-29T02:56:35;16.80;99.90
2463;DHT22;1243;54.298;10.172;2023-07-29T02:59:01;16.90;99.90
2463;DHT22;1243;54.298;10.172;2023-07-29T03:01:27;17.00;99.90
2463;DHT22;1243;54.298;10.172;2023-07-29T03:03:53;17.00;99.90
2463;DHT22;1243;54.298;10.172;2023-07-29T03:06:19;17.10;99.90
2463;DHT22;1243;54.298;10.172;2023-07-29T03:08:44;17.00;99.90
2463;DHT22;1243;54.298;10.172;2023-07-29T03:11:13;17.10;99.90
2463;DHT22;1243;54.298;10.172;2023-07-29T03:13:38;17.10;99.90
2463;DHT22;1243;54.298;10.172;2023-07-29T03:16:12;17.10;99.90
2463;DHT22;1243;54.298;10.172;2023-07-29T03:18:38;17.10;99.90
2463;DHT22;1243;54.298;10.172;2023-07-29T03:21:04;17.20;99.90
2463;DHT22;1243;54.298;10.172;2023-07-29T03:23:31;17.20;99.90
2463;DHT22;1243;54.298;10.172;2023-07-29T03:25:58;17.20;99.90
2463;DHT22;1243;54.298;10.172;2023-07-29T03:28:26;17.10;99.90
2463;DHT22;1243;54.298;10.172;2023-07-29T03:30:53;17.10;99.90
2463;DHT22;1243;54.298;10.172;2023-07-29T03:33:19;17.20;99.90
2463;DHT22;1243;54.298;10.172;2023-07-29T03:35:44;17.20;99.90
2463;DHT22;1243;54.298;10.172;2023-07-29T03:38:11;17.20;99.90
2463;DHT22;1243;54.298;10.172;2023-07-29T03:40:38;17.20;99.90
2463;DHT22;1243;54.298;10.172;2023-07-29T03:43:04;17.20;99.90
2463;DHT22;1243;54.298;10.172;2023-07-29T03:45:30;17.20;99.90
2463;DHT22;1243;54.298;10.172;2023-07-29T03:47:55;17.20;99.90
2463;DHT22;1243;54.298;10.172;2023-07-29T03:50:21;17.20;99.90
2463;DHT22;1243;54.298;10.172;2023-07-29T03:52:47;17.20;99.90
2463;DHT22;1243;54.298;10.172;2023-07-29T03:55:13;17.20;99.90
2463;DHT22;1243;54.298;10.172;2023-07-29T03:57:39;17.20;99.90
2463;DHT22;1243;54.298;10.172;2023-07-29T04:00:05;17.20;99.90
2463;DHT22;1243;54.298;10.172;2023-07-29T04:02:31;17.20;99.90
2463;DHT22;1243;54.298;10.172;2023-07-29T04:04:57;17.20;99.90
2463;DHT22;1243;54.298;10.172;2023-07-29T04:07:22;17.30;99.90
2463;DHT22;1243;54.298;10.172;2023-07-29T04:09:48;17.30;99.90
2463;DHT22;1243;54.298;10.172;2023-07-29T04:12:15;17.30;99.90
2463;DHT22;1243;54.298;10.172;2023-07-29T04:14:41;17.30;99.90
2463;DHT22;1243;54.298;10.172;2023-07-29T04:17:07;17.30;99.90
2463;DHT22;1243;54.298;10.172;2023-07-29T04:19:33;17.30;1.00
2463;DHT22;1243;54.298;10.172;2023-07-29T04:21:58;17.30;1.00
2463;DHT22;1243;54.298;10.172;2023-07-29T04:24:24;17.30;1.00
2463;DHT22;1243;54.298;10.172;2023-07-29T04:26:50;17.40;1.00
2463;DHT22;1243;54.298;10.172;2023-07-29T04:29:16;17.30;1.00
2463;DHT22;1243;54.298;10.172;2023-07-29T04:31:42;17.30;1.00
2463;DHT22;1243;54.298;10.172;2023-07-29T04:34:08;17.30;1.00
2463;DHT22;1243;54.298;10.172;2023-07-29T04:36:34;17.30;1.00
2463;DHT22;1243;54.298;10.172;2023-07-29T04:39:00;17.20;1.00
2463;DHT22;1243;54.298;10.172;2023-07-29T04:41:26;17.20;1.00
2463;DHT22;1243;54.298;10.172;2023-07-29T04:43:51;17.20;1.00
2463;DHT22;1243;54.298;10.172;2023-07-29T04:46:18;17.10;1.00
2463;DHT22;1243;54.298;10.172;2023-07-29T04:48:43;17.10;1.00
2463;DHT22;1243;54.298;10.172;2023-07-29T04:51:09;17.10;1.00
2463;DHT22;1243;54.298;10.172;2023-07-29T04:53:35;17.00;1.00
2463;DHT22;1243;54.298;10.172;2023-07-29T04:56:02;17.10;1.00
2463;DHT22;1243;54.298;10.172;2023-07-29T04:58:28;17.10;1.00
2463;DHT22;1243;54.298;10.172;2023-07-29T05:00:55;17.10;1.00
2463;DHT22;1243;54.298;10.172;2023-07-29T05:03:21;17.10;1.00
2463;DHT22;1243;54.298;10.172;2023-07-29T05:05:47;17.10;1.00
2463;DHT22;1243;54.298;10.172;2023-07-29T05:08:13;17.20;1.00
2463;DHT22;1243;54.298;10.172;2023-07-29T05:10:38;17.20;1.00
2463;DHT22;1243;54.298;10.172;2023-07-29T05:13:04;17.20;1.00
2463;DHT22;1243;54.298;10.172;2023-07-29T05:15:30;17.30;1.00
2463;DHT22;1243;54.298;10.172;2023-07-29T05:17:56;17.30;1.00
2463;DHT22;1243;54.298;10.172;2023-07-29T05:20:21;17.30;1.00
2463;DHT22;1243;54.298;10.172;2023-07-29T05:22:47;17.40;1.00
2463;DHT22;1243;54.298;10.172;2023-07-29T05:25:13;17.40;1.00
2463;DHT22;1243;54.298;10.172;2023-07-29T05:27:38;17.50;1.00
2463;DHT22;1243;54.298;10.172;2023-07-29T05:30:05;17.50;5.50
2463;DHT22;1243;54.298;10.172;2023-07-29T05:32:32;17.50;8.70
2463;DHT22;1243;54.298;10.172;2023-07-29T05:34:57;17.50;15.80
2463;DHT22;1243;54.298;10.172;2023-07-29T05:37:23;17.50;23.00
2463;DHT22;1243;54.298;10.172;2023-07-29T05:39:49;17.60;29.80
2463;DHT22;1243;54.298;10.172;2023-07-29T05:42:14;17.60;40.00
2463;DHT22;1243;54.298;10.172;2023-07-29T05:44:40;17.60;40.10
2463;DHT22;1243;54.298;10.172;2023-07-29T05:47:06;17.70;44.70
2463;DHT22;1243;54.298;10.172;2023-07-29T05:49:31;17.60;44.70
2463;DHT22;1243;54.298;10.172;2023-07-29T05:51:57;17.70;49.80
2463;DHT22;1243;54.298;10.172;2023-07-29T05:54:23;17.70;54.30
2463;DHT22;1243;54.298;10.172;2023-07-29T05:56:49;17.80;61.10
2463;DHT22;1243;54.298;10.172;2023-07-29T05:59:14;17.80;61.30
2463;DHT22;1243;54.298;10.172;2023-07-29T06:01:40;17.80;63.20
2463;DHT22;1243;54.298;10.172;2023-07-29T06:04:06;17.90;67.30
2463;DHT22;1243;54.298;10.172;2023-07-29T06:06:32;17.80;66.20
2463;DHT22;1243;54.298;10.172;2023-07-29T06:08:57;17.80;63.10
2463;DHT22;1243;54.298;10.172;2023-07-29T06:11:23;17.80;61.90
2463;DHT22;1243;54.298;10.172;2023-07-29T06:13:49;17.90;61.40
2463;DHT22;1243;54.298;10.172;2023-07-29T06:16:15;17.90;64.40
2463;DHT22;1243;54.298;10.172;2023-07-29T06:18:40;17.90;65.80
2463;DHT22;1243;54.298;10.172;2023-07-29T06:21:06;18.00;68.40
2463;DHT22;1243;54.298;10.172;2023-07-29T06:23:34;18.10;72.00
2463;DHT22;1243;54.298;10.172;2023-07-29T06:25:59;18.00;63.40
2463;DHT22;1243;54.298;10.172;2023-07-29T06:28:26;18.10;66.40
2463;DHT22;1243;54.298;10.172;2023-07-29T06:30:52;18.20;78.60
2463;DHT22;1243;54.298;10.172;2023-07-29T06:33:18;18.30;88.50
2463;DHT22;1243;54.298;10.172;2023-07-29T06:35:44;18.30;87.10
2463;DHT22;1243;54.298;10.172;2023-07-29T06:38:10;18.50;87.20
2463;DHT22;1243;54.298;10.172;2023-07-29T06:40:35;18.50;87.40
2463;DHT22;1243;54.298;10.172;2023-07-29T06:43:01;18.60;87.30
2463;DHT22;1243;54.298;10.172;2023-07-29T06:45:27;18.70;87.40
2463;DHT22;1243;54.298;10.172;2023-07-29T06:47:53;18.70;87.60
2463;DHT22;1243;54.298;10.172;2023-07-29T06:50:18;18.80;92.10
2463;DHT22;1243;54.298;10.172;2023-07-29T06:52:45;18.80;92.40
2463;DHT22;1243;54.298;10.172;2023-07-29T06:55:10;18.70;87.40
2463;DHT22;1243;54.298;10.172;2023-07-29T06:57:36;18.80;90.60
2463;DHT22;1243;54.298;10.172;2023-07-29T07:00:03;18.80;92.70
2463;DHT22;1243;54.298;10.172;2023-07-29T07:02:28;18.80;95.50
2463;DHT22;1243;54.298;10.172;2023-07-29T07:04:54;18.80;97.40
2463;DHT22;1243;54.298;10.172;2023-07-29T07:07:20;18.90;98.60
2463;DHT22;1243;54.298;10.172;2023-07-29T07:09:46;18.80;95.20
2463;DHT22;1243;54.298;10.172;2023-07-29T07:12:11;18.80;98.90
2463;DHT22;1243;54.298;10.172;2023-07-29T07:14:37;18.90;99.90
2463;DHT22;1243;54.298;10.172;2023-07-29T07:17:03;19.00;99.90
2463;DHT22;1243;54.298;10.172;2023-07-29T07:19:29;19.10;99.90
2463;DHT22;1243;54.298;10.172;2023-07-29T07:21:55;19.20;99.90
2463;DHT22;1243;54.298;10.172;2023-07-29T07:24:20;19.30;99.90
2463;DHT22;1243;54.298;10.172;2023-07-29T07:26:47;19.30;99.90
2463;DHT22;1243;54.298;10.172;2023-07-29T07:29:14;19.30;99.90
2463;DHT22;1243;54.298;10.172;2023-07-29T07:31:40;19.30;99.90
2463;DHT22;1243;54.298;10.172;2023-07-29T07:34:06;19.40;99.90
2463;DHT22;1243;54.298;10.172;2023-07-29T07:36:31;19.40;99.90
2463;DHT22;1243;54.298;10.172;2023-07-29T07:38:57;19.40;99.90
2463;DHT22;1243;54.298;10.172;2023-07-29T07:41:23;19.40;99.90
2463;DHT22;1243;54.298;10.172;2023-07-29T07:43:50;19.40;99.90
2463;DHT22;1243;54.298;10.172;2023-07-29T07:46:16;19.40;98.30
2463;DHT22;1243;54.298;10.172;2023-07-29T07:48:41;19.40;95.60
2463;DHT22;1243;54.298;10.172;2023-07-29T07:51:13;19.50;93.00
2463;DHT22;1243;54.298;10.172;2023-07-29T07:53:39;19.50;88.00
2463;DHT22;1243;54.298;10.172;2023-07-29T07:56:06;19.60;85.30
2463;DHT22;1243;54.298;10.172;2023-07-29T07:58:32;19.70;74.90
2463;DHT22;1243;54.298;10.172;2023-07-29T08:01:05;19.70;60.70
2463;DHT22;1243;54.298;10.172;2023-07-29T08:03:32;19.80;64.00
2463;DHT22;1243;54.298;10.172;2023-07-29T08:05:58;19.90;46.80
2463;DHT22;1243;54.298;10.172;2023-07-29T08:08:25;19.90;4.70
2463;DHT22;1243;54.298;10.172;2023-07-29T08:10:53;19.90;1.00
2463;DHT22;1243;54.298;10.172;2023-07-29T08:13:20;19.90;1.00
2463;DHT22;1243;54.298;10.172;2023-07-29T08:15:47;20.00;1.00
2463;DHT22;1243;54.298;10.172;2023-07-29T08:18:13;20.00;1.00
2463;DHT22;1243;54.298;10.172;2023-07-29T08:20:39;20.10;1.00
2463;DHT22;1243;54.298;10.172;2023-07-29T08:23:04;20.00;1.00
2463;DHT22;1243;54.298;10.172;2023-07-29T08:25:30;20.00;1.00
2463;DHT22;1243;54.298;10.172;2023-07-29T08:27:56;20.10;1.00
2463;DHT22;1243;54.298;10.172;2023-07-29T08:30:22;20.10;1.00
2463;DHT22;1243;54.298;10.172;2023-07-29T08:32:48;20.20;1.00
2463;DHT22;1243;54.298;10.172;2023-07-29T08:35:14;20.20;1.00
2463;DHT22;1243;54.298;10.172;2023-07-29T08:37:39;20.30;1.00
2463;DHT22;1243;54.298;10.172;2023-07-29T08:40:06;20.40;1.00
2463;DHT22;1243;54.298;10.172;2023-07-29T08:42:32;20.50;1.00
2463;DHT22;1243;54.298;10.172;2023-07-29T08:45:07;20.70;1.00
2463;DHT22;1243;54.298;10.172;2023-07-29T08:47:36;20.70;1.00
2463;DHT22;1243;54.298;10.172;2023-07-29T08:50:03;20.70;1.00
2463;DHT22;1243;54.298;10.172;2023-07-29T08:52:29;20.80;1.00
2463;DHT22;1243;54.298;10.172;2023-07-29T08:54:58;20.80;1.00
2463;DHT22;1243;54.298;10.172;2023-07-29T08:57:24;20.90;1.00
2463;DHT22;1243;54.298;10.172;2023-07-29T08:59:51;21.10;1.00
2463;DHT22;1243;54.298;10.172;2023-07-29T09:02:18;21.20;1.00
2463;DHT22;1243;54.298;10.172;2023-07-29T09:04:43;21.20;1.00
2463;DHT22;1243;54.298;10.172;2023-07-29T09:07:10;21.30;1.00
2463;DHT22;1243;54.298;10.172;2023-07-29T09:09:36;21.30;99.90
2463;DHT22;1243;54.298;10.172;2023-07-29T09:12:02;21.30;99.90
2463;DHT22;1243;54.298;10.172;2023-07-29T09:14:28;21.40;99.90
2463;DHT22;1243;54.298;10.172;2023-07-29T09:16:55;21.50;99.90
2463;DHT22;1243;54.298;10.172;2023-07-29T09:19:25;21.50;99.90
2463;DHT22;1243;54.298;10.172;2023-07-29T09:21:51;21.50;99.90
2463;DHT22;1243;54.298;10.172;2023-07-29T09:24:17;21.50;99.90
2463;DHT22;1243;54.298;10.172;2023-07-29T09:26:50;21.70;99.90
2463;DHT22;1243;54.298;10.172;2023-07-29T09:29:16;21.70;99.90
2463;DHT22;1243;54.298;10.172;2023-07-29T09:31:46;21.70;99.90
2463;DHT22;1243;54.298;10.172;2023-07-29T09:34:15;21.90;99.90
2463;DHT22;1243;54.298;10.172;2023-07-29T09:36:42;22.00;99.90
2463;DHT22;1243;54.298;10.172;2023-07-29T09:39:12;22.20;99.90
2463;DHT22;1243;54.298;10.172;2023-07-29T09:41:38;22.50;99.90
2463;DHT22;1243;54.298;10.172;2023-07-29T09:44:04;22.60;99.90
2463;DHT22;1243;54.298;10.172;2023-07-29T09:46:37;22.60;99.90
2463;DHT22;1243;54.298;10.172;2023-07-29T09:49:05;22.40;98.10
2463;DHT22;1243;54.298;10.172;2023-07-29T09:51:31;22.30;96.50
2463;DHT22;1243;54.298;10.172;2023-07-29T09:53:57;22.20;96.50
2463;DHT22;1243;54.298;10.172;2023-07-29T09:56:27;22.10;96.50
2463;DHT22;1243;54.298;10.172;2023-07-29T09:58:56;22.30;96.60
2463;DHT22;1243;54.298;10.172;2023-07-29T10:01:23;22.40;96.60
2463;DHT22;1243;54.298;10.172;2023-07-29T10:03:49;22.60;96.70
2463;DHT22;1243;54.298;10.172;2023-07-29T10:06:15;23.10;86.00
2463;DHT22;1243;54.298;10.172;2023-07-29T10:08:42;23.40;51.80
2463;DHT22;1243;54.298;10.172;2023-07-29T10:11:10;23.60;12.40
2463;DHT22;1243;54.298;10.172;2023-07-29T10:13:37;23.70;1.00
2463;DHT22;1243;54.298;10.172;2023-07-29T10:16:03;23.80;3.20
2463;DHT22;1243;54.298;10.172;2023-07-29T10:18:31;23.60;1.00
2463;DHT22;1243;54.298;10.172;2023-07-29T10:20:58;23.20;1.00
2463;DHT22;1243;54.298;10.172;2023-07-29T10:23:26;22.90;1.00
2463;DHT22;1243;54.298;10.172;2023-07-29T10:26:06;22.80;1.00
2463;DHT22;1243;54.298;10.172;2023-07-29T10:28:39;22.90;1.00
2463;DHT22;1243;54.298;10.172;2023-07-29T10:31:05;22.90;1.00
2463;DHT22;1243;54.298;10.172;2023-07-29T10:33:33;22.80;1.00
2463;DHT22;1243;54.298;10.172;2023-07-29T10:35:59;23.20;1.00
2463;DHT22;1243;54.298;10.172;2023-07-29T10:38:25;23.70;1.00
2463;DHT22;1243;54.298;10.172;2023-07-29T10:40:53;24.20;1.00
2463;DHT22;1243;54.298;10.172;2023-07-29T10:43:35;24.10;1.00
2463;DHT22;1243;54.298;10.172;2023-07-29T10:46:18;24.50;1.00
2463;DHT22;1243;54.298;10.172;2023-07-29T10:51:29;25.00;1.00
2463;DHT22;1243;54.298;10.172;2023-07-29T10:53:57;25.00;1.00
2463;DHT22;1243;54.298;10.172;2023-07-29T10:58:56;24.80;1.00
2463;DHT22;1243;54.298;10.172;2023-07-29T11:01:30;25.00;1.00
2463;DHT22;1243;54.298;10.172;2023-07-29T11:07:22;26.00;1.00
2463;DHT22;1243;54.298;10.172;2023-07-29T11:10:02;26.50;1.00
2463;DHT22;1243;54.298;10.172;2023-07-29T11:17:42;26.90;1.00
2463;DHT22;1243;54.298;10.172;2023-07-29T11:20:09;26.30;1.00
2463;DHT22;1243;54.298;10.172;2023-07-29T11:22:35;25.90;1.00
2463;DHT22;1243;54.298;10.172;2023-07-29T11:25:02;25.60;1.00
2463;DHT22;1243;54.298;10.172;2023-07-29T11:27:28;25.40;1.00
2463;DHT22;1243;54.298;10.172;2023-07-29T11:30:01;25.30;1.00
2463;DHT22;1243;54.298;10.172;2023-07-29T11:32:27;25.10;1.00
2463;DHT22;1243;54.298;10.172;2023-07-29T11:34:53;24.90;1.00
2463;DHT22;1243;54.298;10.172;2023-07-29T11:37:19;24.80;1.00
2463;DHT22;1243;54.298;10.172;2023-07-29T11:39:46;24.70;1.00
2463;DHT22;1243;54.298;10.172;2023-07-29T11:42:13;24.70;1.00
2463;DHT22;1243;54.298;10.172;2023-07-29T11:44:39;25.00;1.00
2463;DHT22;1243;54.298;10.172;2023-07-29T11:47:11;25.80;1.00
2463;DHT22;1243;54.298;10.172;2023-07-29T11:49:41;26.80;1.00
2463;DHT22;1243;54.298;10.172;2023-07-29T11:52:10;27.50;1.00
2463;DHT22;1243;54.298;10.172;2023-07-29T11:54:39;27.70;1.00
2463;DHT22;1243;54.298;10.172;2023-07-29T11:57:08;27.10;99.90
2463;DHT22;1243;54.298;10.172;2023-07-29T11:59:36;26.90;99.90
2463;DHT22;1243;54.298;10.172;2023-07-29T12:02:06;27.00;99.90
2463;DHT22;1243;54.298;10.172;2023-07-29T12:04:33;26.40;99.90
2463;DHT22;1243;54.298;10.172;2023-07-29T12:07:00;25.70;99.90
2463;DHT22;1243;54.298;10.172;2023-07-29T12:09:26;25.40;99.90
2463;DHT22;1243;54.298;10.172;2023-07-29T12:11:53;25.60;99.90
2463;DHT22;1243;54.298;10.172;2023-07-29T12:14:19;25.80;99.90
2463;DHT22;1243;54.298;10.172;2023-07-29T12:16:48;25.30;99.90
2463;DHT22;1243;54.298;10.172;2023-07-29T12:19:14;25.00;99.90
2463;DHT22;1243;54.298;10.172;2023-07-29T12:21:44;25.00;99.90
2463;DHT22;1243;54.298;10.172;2023-07-29T12:24:13;25.90;99.90
2463;DHT22;1243;54.298;10.172;2023-07-29T12:26:40;27.10;99.90
2463;DHT22;1243;54.298;10.172;2023-07-29T12:29:18;28.00;99.90
2463;DHT22;1243;54.298;10.172;2023-07-29T12:31:45;28.20;99.90
2463;DHT22;1243;54.298;10.172;2023-07-29T12:34:21;27.70;99.90
2463;DHT22;1243;54.298;10.172;2023-07-29T12:36:48;27.50;99.90
2463;DHT22;1243;54.298;10.172;2023-07-29T12:39:23;26.80;99.90
2463;DHT22;1243;54.298;10.172;2023-07-29T12:41:50;26.40;99.90
2463;DHT22;1243;54.298;10.172;2023-07-29T12:44:16;25.90;99.90
2463;DHT22;1243;54.298;10.172;2023-07-29T12:46:42;26.20;99.90
2463;DHT22;1243;54.298;10.172;2023-07-29T12:49:08;27.10;99.90
2463;DHT22;1243;54.298;10.172;2023-07-29T12:51:34;27.40;99.90
2463;DHT22;1243;54.298;10.172;2023-07-29T12:54:00;27.10;99.90
2463;DHT22;1243;54.298;10.172;2023-07-29T12:56:26;26.20;99.90
2463;DHT22;1243;54.298;10.172;2023-07-29T12:58:52;25.40;99.90
2463;DHT22;1243;54.298;10.172;2023-07-29T13:01:18;24.80;99.90
2463;DHT22;1243;54.298;10.172;2023-07-29T13:03:48;24.50;99.90
2463;DHT22;1243;54.298;10.172;2023-07-29T13:06:14;24.30;99.90
2463;DHT22;1243;54.298;10.172;2023-07-29T13:08:41;24.20;99.90
2463;DHT22;1243;54.298;10.172;2023-07-29T13:11:07;24.00;99.90
2463;DHT22;1243;54.298;10.172;2023-07-29T13:13:32;24.10;99.90
2463;DHT22;1243;54.298;10.172;2023-07-29T13:15:59;24.40;99.90
2463;DHT22;1243;54.298;10.172;2023-07-29T13:18:24;24.70;99.90
2463;DHT22;1243;54.298;10.172;2023-07-29T13:20:50;25.20;99.90
2463;DHT22;1243;54.298;10.172;2023-07-29T13:23:16;25.50;99.90
2463;DHT22;1243;54.298;10.172;2023-07-29T13:25:42;25.40;99.90
2463;DHT22;1243;54.298;10.172;2023-07-29T13:28:10;25.40;99.90
2463;DHT22;1243;54.298;10.172;2023-07-29T13:30:36;25.00;99.90
2463;DHT22;1243;54.298;10.172;2023-07-29T13:33:02;24.50;99.90
2463;DHT22;1243;54.298;10.172;2023-07-29T13:35:30;24.30;99.90
2463;DHT22;1243;54.298;10.172;2023-07-29T13:37:56;24.50;99.90
2463;DHT22;1243;54.298;10.172;2023-07-29T13:40:21;24.80;99.90
2463;DHT22;1243;54.298;10.172;2023-07-29T13:42:47;24.70;99.90
2463;DHT22;1243;54.298;10.172;2023-07-29T13:45:13;24.80;99.90
2463;DHT22;1243;54.298;10.172;2023-07-29T13:47:38;25.30;99.90
2463;DHT22;1243;54.298;10.172;2023-07-29T13:50:05;25.80;99.90
2463;DHT22;1243;54.298;10.172;2023-07-29T13:52:33;26.10;99.90
2463;DHT22;1243;54.298;10.172;2023-07-29T13:54:58;26.20;99.90
2463;DHT22;1243;54.298;10.172;2023-07-29T13:57:24;26.50;99.90
2463;DHT22;1243;54.298;10.172;2023-07-29T13:59:50;26.60;99.90
2463;DHT22;1243;54.298;10.172;2023-07-29T14:02:15;26.70;99.90
2463;DHT22;1243;54.298;10.172;2023-07-29T14:04:41;26.90;99.90
2463;DHT22;1243;54.298;10.172;2023-07-29T14:07:07;27.00;99.90
2463;DHT22;1243;54.298;10.172;2023-07-29T14:09:32;26.80;99.90
2463;DHT22;1243;54.298;10.172;2023-07-29T14:11:58;26.40;99.90
2463;DHT22;1243;54.298;10.172;2023-07-29T14:14:24;25.80;99.90
2463;DHT22;1243;54.298;10.172;2023-07-29T14:16:49;25.80;99.90
2463;DHT22;1243;54.298;10.172;2023-07-29T14:19:15;26.10;99.90
2463;DHT22;1243;54.298;10.172;2023-07-29T14:21:41;25.90;99.90
2463;DHT22;1243;54.298;10.172;2023-07-29T14:24:06;25.80;99.90
2463;DHT22;1243;54.298;10.172;2023-07-29T14:26:32;25.50;99.90
2463;DHT22;1243;54.298;10.172;2023-07-29T14:28:58;25.20;99.90
2463;DHT22;1243;54.298;10.172;2023-07-29T14:31:24;25.00;99.90
2463;DHT22;1243;54.298;10.172;2023-07-29T14:33:49;24.70;99.90
2463;DHT22;1243;54.298;10.172;2023-07-29T14:36:16;24.70;99.90
2463;DHT22;1243;54.298;10.172;2023-07-29T14:38:42;24.70;99.90
2463;DHT22;1243;54.298;10.172;2023-07-29T14:41:08;24.60;99.90
2463;DHT22;1243;54.298;10.172;2023-07-29T14:43:34;24.50;99.90
2463;DHT22;1243;54.298;10.172;2023-07-29T14:46:00;24.70;99.90
2463;DHT22;1243;54.298;10.172;2023-07-29T14:48:26;25.00;99.90
2463;DHT22;1243;54.298;10.172;2023-07-29T14:50:51;25.00;99.90
2463;DHT22;1243;54.298;10.172;2023-07-29T14:53:17;25.30;99.90
2463;DHT22;1243;54.298;10.172;2023-07-29T14:55:43;25.50;99.90
2463;DHT22;1243;54.298;10.172;2023-07-29T14:58:08;25.70;99.90
2463;DHT22;1243;54.298;10.172;2023-07-29T15:00:34;25.50;99.90
2463;DHT22;1243;54.298;10.172;2023-07-29T15:03:00;25.60;99.90
2463;DHT22;1243;54.298;10.172;2023-07-29T15:05:26;25.80;99.90
2463;DHT22;1243;54.298;10.172;2023-07-29T15:07:52;25.90;99.90
2463;DHT22;1243;54.298;10.172;2023-07-29T15:10:17;25.80;99.90
2463;DHT22;1243;54.298;10.172;2023-07-29T15:12:44;25.90;99.90
2463;DHT22;1243;54.298;10.172;2023-07-29T15:15:11;25.90;99.90
2463;DHT22;1243;54.298;10.172;2023-07-29T15:17:37;26.10;99.90
2463;DHT22;1243;54.298;10.172;2023-07-29T15:20:03;26.10;99.90
2463;DHT22;1243;54.298;10.172;2023-07-29T15:22:29;26.10;99.90
2463;DHT22;1243;54.298;10.172;2023-07-29T15:24:55;26.30;99.90
2463;DHT22;1243;54.298;10.172;2023-07-29T15:27:21;26.20;99.90
2463;DHT22;1243;54.298;10.172;2023-07-29T15:29:47;26.00;99.90
2463;DHT22;1243;54.298;10.172;2023-07-29T15:32:13;25.80;99.90
2463;DHT22;1243;54.298;10.172;2023-07-29T15:34:39;25.70;99.90
2463;DHT22;1243;54.298;10.172;2023-07-29T15:37:05;25.50;99.90
2463;DHT22;1243;54.298;10.172;2023-07-29T15:39:30;25.40;99.90
2463;DHT22;1243;54.298;10.172;2023-07-29T15:41:58;25.50;99.90
2463;DHT22;1243;54.298;10.172;2023-07-29T15:44:23;25.60;99.90
2463;DHT22;1243;54.298;10.172;2023-07-29T15:46:49;25.60;99.90
2463;DHT22;1243;54.298;10.172;2023-07-29T15:49:17;25.60;99.90
2463;DHT22;1243;54.298;10.172;2023-07-29T15:51:43;25.40;99.90
2463;DHT22;1243;54.298;10.172;2023-07-29T15:54:08;25.50;99.90
2463;DHT22;1243;54.298;10.172;2023-07-29T15:56:34;25.70;99.90
2463;DHT22;1243;54.298;10.172;2023-07-29T15:59:02;25.70;99.90
2463;DHT22;1243;54.298;10.172;2023-07-29T16:01:28;25.50;99.90
2463;DHT22;1243;54.298;10.172;2023-07-29T16:03:54;25.40;99.90